Tropical Cyclones
[Index]
Main Index Home Page Stock Weather Photos Extreme Storms Discussion Storm News and Storm Chasing Reports Tropical Cyclones / Hurricanes / Typhoons Weather Data and Links Wild Fires / Bushfires Weather Observation Techniques Weather Picture Catalogue Tornado Pictures and Reports Stock Video Footage and DVDs for sale
Season 2004-2005 Tropical Cyclone ISANG Track Map
Season 2004-2005 Summaries (Operational Data): [AU] [SIO] [SPAC] [SH]
<<- Previous TC | 2004-2005 Season | Next TC ->>

click for intensity scale information  Lat/long Grid: Show Hide

 Date Labels: Show Hide

Operational Tropical Cyclone Data : JTWC Advisories

Name: ISANG
Number: 0525

29 Mar 2005 18:00 UTC to 07 Apr 2005 06:00 UTC

    date/time    lat    long     hPa   cat  kts
2005-03-29 18   10.4    84.4    1002         20          
2005-03-30 00   10.3    84.0    1001         25          
2005-03-30 12   11.3    84.1    1002         25          
2005-03-31 06   11.0    81.5    1001         25          
2005-03-31 12   11.5    80.3    1001         25          
2005-03-31 18   11.8    79.2    1000         25          
2005-04-01 00   11.6    78.0    1000         25          
2005-04-01 06   12.2    78.7    1002         25          
2005-04-01 12   13.7    78.4    1002         25          
2005-04-01 18   14.0    77.5    1002         25          
2005-04-02 00   13.7    75.7    1001         25          
2005-04-02 06   14.0    73.9     999         25          
2005-04-02 12   14.3    75.2    1000         25          
2005-04-02 18   14.5    73.2    1000         25          
2005-04-03 00   14.7    72.8     999         25          
2005-04-03 06   14.7    71.5     997         30          
2005-04-03 12   15.1    70.2     995    1    35          
2005-04-03 18   16.0    69.5     995    1    35          
2005-04-04 00   16.7    69.4     995    1    35          
2005-04-04 06   16.8    69.1     995    1    35          
2005-04-04 12   17.6    68.0     993    1    35          
2005-04-04 18   18.6    67.8     993    1    35          
2005-04-05 00   19.5    66.6     993    1    35          
2005-04-05 06   20.0    66.0     990    1    40          
2005-04-05 12   20.4    65.6     988    1    40          
2005-04-05 18   21.4    65.7     988    1    40          
2005-04-06 00   22.5    65.9     984    2    50          
2005-04-06 06   24.5    66.4     978    2    55          
2005-04-06 12   26.3    67.0     975    2    60          
2005-04-06 18   27.6    67.6     975    2    60          
2005-04-07 00   29.8    69.1     975    2    60          
2005-04-07 06   31.5    69.8     980    2    60          
Winds are 10-min average.

Tropical cyclone tracks developed by Michael Bath using operational warnings and advisories and Google Maps.


[Australian Severe Weather index] [Copyright Notice] [Email Contacts] [Search This Site] [Privacy Policy]
Document: tropical_cyclone_isang.htm Updated: 28 May 2013